sensor_id;sensor_type;location;lat;lon;timestamp;P1;durP1;ratioP1;P2;durP2;ratioP2
5499;SDS011;2772;42.700;23.304;2023-04-25T00:01:35;10.33;;;4.00;;
5499;SDS011;2772;42.700;23.304;2023-04-25T00:04:02;4.97;;;3.80;;
5499;SDS011;2772;42.700;23.304;2023-04-25T00:06:31;4.53;;;3.60;;
5499;SDS011;2772;42.700;23.304;2023-04-25T00:08:57;6.70;;;3.27;;
5499;SDS011;2772;42.700;23.304;2023-04-25T00:11:26;4.33;;;3.90;;
5499;SDS011;2772;42.700;23.304;2023-04-25T00:13:52;6.10;;;4.27;;
5499;SDS011;2772;42.700;23.304;2023-04-25T00:16:19;5.03;;;3.87;;
5499;SDS011;2772;42.700;23.304;2023-04-25T00:18:46;5.83;;;3.23;;
5499;SDS011;2772;42.700;23.304;2023-04-25T00:21:16;5.80;;;4.20;;
5499;SDS011;2772;42.700;23.304;2023-04-25T00:23:43;8.00;;;4.90;;
5499;SDS011;2772;42.700;23.304;2023-04-25T00:26:11;4.90;;;4.40;;
5499;SDS011;2772;42.700;23.304;2023-04-25T00:28:39;4.90;;;4.20;;
5499;SDS011;2772;42.700;23.304;2023-04-25T00:31:06;4.50;;;4.20;;
5499;SDS011;2772;42.700;23.304;2023-04-25T00:33:32;4.33;;;3.90;;
5499;SDS011;2772;42.700;23.304;2023-04-25T00:35:59;4.53;;;4.20;;
5499;SDS011;2772;42.700;23.304;2023-04-25T00:38:26;4.00;;;3.70;;
5499;SDS011;2772;42.700;23.304;2023-04-25T00:40:53;4.40;;;4.10;;
5499;SDS011;2772;42.700;23.304;2023-04-25T00:43:20;4.23;;;4.03;;
5499;SDS011;2772;42.700;23.304;2023-04-25T00:45:48;4.40;;;4.10;;
5499;SDS011;2772;42.700;23.304;2023-04-25T00:48:18;4.70;;;4.30;;
5499;SDS011;2772;42.700;23.304;2023-04-25T00:50:45;6.07;;;4.80;;
5499;SDS011;2772;42.700;23.304;2023-04-25T00:53:17;5.37;;;4.87;;
5499;SDS011;2772;42.700;23.304;2023-04-25T00:55:44;6.70;;;4.67;;
5499;SDS011;2772;42.700;23.304;2023-04-25T00:58:11;4.93;;;4.43;;
5499;SDS011;2772;42.700;23.304;2023-04-25T01:00:38;6.20;;;4.60;;
5499;SDS011;2772;42.700;23.304;2023-04-25T01:03:07;5.00;;;4.50;;
5499;SDS011;2772;42.700;23.304;2023-04-25T01:05:35;5.57;;;5.07;;
5499;SDS011;2772;42.700;23.304;2023-04-25T01:08:01;6.03;;;5.37;;
5499;SDS011;2772;42.700;23.304;2023-04-25T01:10:28;7.37;;;6.00;;
5499;SDS011;2772;42.700;23.304;2023-04-25T01:12:55;7.00;;;6.10;;
5499;SDS011;2772;42.700;23.304;2023-04-25T01:15:22;6.97;;;6.23;;
5499;SDS011;2772;42.700;23.304;2023-04-25T01:17:49;6.60;;;5.90;;
5499;SDS011;2772;42.700;23.304;2023-04-25T01:20:17;8.47;;;6.13;;
5499;SDS011;2772;42.700;23.304;2023-04-25T01:22:48;8.90;;;5.70;;
5499;SDS011;2772;42.700;23.304;2023-04-25T01:25:15;6.80;;;6.10;;
5499;SDS011;2772;42.700;23.304;2023-04-25T01:27:43;6.83;;;6.20;;
5499;SDS011;2772;42.700;23.304;2023-04-25T01:30:10;9.60;;;6.20;;
5499;SDS011;2772;42.700;23.304;2023-04-25T01:32:37;5.80;;;5.30;;
5499;SDS011;2772;42.700;23.304;2023-04-25T01:35:04;5.63;;;5.00;;
5499;SDS011;2772;42.700;23.304;2023-04-25T01:37:34;6.47;;;5.57;;
5499;SDS011;2772;42.700;23.304;2023-04-25T01:40:03;5.87;;;5.37;;
5499;SDS011;2772;42.700;23.304;2023-04-25T01:42:31;5.43;;;5.03;;
5499;SDS011;2772;42.700;23.304;2023-04-25T01:44:58;8.93;;;5.60;;
5499;SDS011;2772;42.700;23.304;2023-04-25T01:47:25;5.90;;;5.30;;
5499;SDS011;2772;42.700;23.304;2023-04-25T01:49:52;5.67;;;5.13;;
5499;SDS011;2772;42.700;23.304;2023-04-25T01:52:18;6.47;;;5.87;;
5499;SDS011;2772;42.700;23.304;2023-04-25T01:54:45;6.23;;;5.73;;
5499;SDS011;2772;42.700;23.304;2023-04-25T01:57:14;5.23;;;4.73;;
5499;SDS011;2772;42.700;23.304;2023-04-25T01:59:41;6.97;;;5.40;;
5499;SDS011;2772;42.700;23.304;2023-04-25T02:02:08;5.97;;;5.47;;
5499;SDS011;2772;42.700;23.304;2023-04-25T02:04:34;5.83;;;5.33;;
5499;SDS011;2772;42.700;23.304;2023-04-25T02:07:01;5.40;;;5.00;;
5499;SDS011;2772;42.700;23.304;2023-04-25T02:09:28;5.47;;;5.00;;
5499;SDS011;2772;42.700;23.304;2023-04-25T02:11:54;5.43;;;5.00;;
5499;SDS011;2772;42.700;23.304;2023-04-25T02:14:22;5.13;;;4.60;;
5499;SDS011;2772;42.700;23.304;2023-04-25T02:16:49;5.28;;;4.88;;
5499;SDS011;2772;42.700;23.304;2023-04-25T02:19:16;5.90;;;5.30;;
5499;SDS011;2772;42.700;23.304;2023-04-25T02:21:43;4.87;;;4.47;;
5499;SDS011;2772;42.700;23.304;2023-04-25T02:24:09;5.77;;;5.27;;
5499;SDS011;2772;42.700;23.304;2023-04-25T02:26:36;7.00;;;6.00;;
5499;SDS011;2772;42.700;23.304;2023-04-25T02:29:03;5.60;;;5.10;;
5499;SDS011;2772;42.700;23.304;2023-04-25T02:31:31;7.30;;;6.07;;
5499;SDS011;2772;42.700;23.304;2023-04-25T02:33:57;7.20;;;6.07;;
5499;SDS011;2772;42.700;23.304;2023-04-25T02:36:24;10.13;;;6.30;;
5499;SDS011;2772;42.700;23.304;2023-04-25T02:38:51;6.63;;;5.90;;
5499;SDS011;2772;42.700;23.304;2023-04-25T02:41:18;6.47;;;5.87;;
5499;SDS011;2772;42.700;23.304;2023-04-25T02:43:45;5.83;;;5.20;;
5499;SDS011;2772;42.700;23.304;2023-04-25T02:46:12;5.73;;;5.30;;
5499;SDS011;2772;42.700;23.304;2023-04-25T02:48:40;6.03;;;5.53;;
5499;SDS011;2772;42.700;23.304;2023-04-25T02:51:07;5.80;;;5.30;;
5499;SDS011;2772;42.700;23.304;2023-04-25T02:53:33;6.47;;;5.40;;
5499;SDS011;2772;42.700;23.304;2023-04-25T02:56:00;6.23;;;5.63;;
5499;SDS011;2772;42.700;23.304;2023-04-25T02:58:27;5.83;;;5.37;;
5499;SDS011;2772;42.700;23.304;2023-04-25T03:00:54;6.80;;;5.83;;
5499;SDS011;2772;42.700;23.304;2023-04-25T03:03:20;6.77;;;6.17;;
5499;SDS011;2772;42.700;23.304;2023-04-25T03:05:49;7.53;;;5.90;;
5499;SDS011;2772;42.700;23.304;2023-04-25T03:08:15;7.00;;;6.10;;
5499;SDS011;2772;42.700;23.304;2023-04-25T03:10:42;7.73;;;6.00;;
5499;SDS011;2772;42.700;23.304;2023-04-25T03:13:09;7.27;;;6.00;;
5499;SDS011;2772;42.700;23.304;2023-04-25T03:15:36;8.60;;;6.00;;
5499;SDS011;2772;42.700;23.304;2023-04-25T03:18:03;7.57;;;6.77;;
5499;SDS011;2772;42.700;23.304;2023-04-25T03:20:30;6.70;;;6.10;;
5499;SDS011;2772;42.700;23.304;2023-04-25T03:22:58;8.53;;;6.30;;
5499;SDS011;2772;42.700;23.304;2023-04-25T03:25:25;6.37;;;5.87;;
5499;SDS011;2772;42.700;23.304;2023-04-25T03:27:52;9.83;;;6.00;;
5499;SDS011;2772;42.700;23.304;2023-04-25T03:30:18;7.10;;;6.40;;
5499;SDS011;2772;42.700;23.304;2023-04-25T03:32:45;7.10;;;6.20;;
5499;SDS011;2772;42.700;23.304;2023-04-25T03:35:12;7.23;;;5.87;;
5499;SDS011;2772;42.700;23.304;2023-04-25T03:37:38;7.33;;;6.33;;
5499;SDS011;2772;42.700;23.304;2023-04-25T03:40:08;8.53;;;6.23;;
5499;SDS011;2772;42.700;23.304;2023-04-25T03:42:35;6.93;;;6.30;;
5499;SDS011;2772;42.700;23.304;2023-04-25T03:45:02;9.13;;;6.60;;
5499;SDS011;2772;42.700;23.304;2023-04-25T03:47:29;8.17;;;6.70;;
5499;SDS011;2772;42.700;23.304;2023-04-25T03:49:56;7.60;;;6.80;;
5499;SDS011;2772;42.700;23.304;2023-04-25T03:52:23;8.57;;;7.10;;
5499;SDS011;2772;42.700;23.304;2023-04-25T03:54:49;9.93;;;7.20;;
5499;SDS011;2772;42.700;23.304;2023-04-25T03:57:17;9.50;;;6.90;;
5499;SDS011;2772;42.700;23.304;2023-04-25T03:59:44;8.17;;;7.23;;
5499;SDS011;2772;42.700;23.304;2023-04-25T04:02:11;9.67;;;7.43;;
5499;SDS011;2772;42.700;23.304;2023-04-25T04:04:38;7.70;;;6.80;;
5499;SDS011;2772;42.700;23.304;2023-04-25T04:07:04;8.10;;;6.23;;
5499;SDS011;2772;42.700;23.304;2023-04-25T04:09:31;7.47;;;6.50;;
5499;SDS011;2772;42.700;23.304;2023-04-25T04:11:58;7.90;;;6.10;;
5499;SDS011;2772;42.700;23.304;2023-04-25T04:14:27;7.23;;;6.53;;
5499;SDS011;2772;42.700;23.304;2023-04-25T04:16:54;10.53;;;6.20;;
5499;SDS011;2772;42.700;23.304;2023-04-25T04:19:21;7.00;;;6.40;;
5499;SDS011;2772;42.700;23.304;2023-04-25T04:21:47;8.37;;;6.53;;
5499;SDS011;2772;42.700;23.304;2023-04-25T04:24:15;8.70;;;6.90;;
5499;SDS011;2772;42.700;23.304;2023-04-25T04:26:42;7.20;;;6.50;;
5499;SDS011;2772;42.700;23.304;2023-04-25T04:29:09;7.03;;;6.33;;
5499;SDS011;2772;42.700;23.304;2023-04-25T04:31:38;9.43;;;7.50;;
5499;SDS011;2772;42.700;23.304;2023-04-25T04:34:05;7.30;;;6.70;;
5499;SDS011;2772;42.700;23.304;2023-04-25T04:36:31;8.93;;;7.10;;
5499;SDS011;2772;42.700;23.304;2023-04-25T04:38:58;7.53;;;6.73;;
5499;SDS011;2772;42.700;23.304;2023-04-25T04:41:25;7.83;;;7.03;;
5499;SDS011;2772;42.700;23.304;2023-04-25T04:43:52;7.00;;;6.30;;
5499;SDS011;2772;42.700;23.304;2023-04-25T04:46:21;13.83;;;6.90;;
5499;SDS011;2772;42.700;23.304;2023-04-25T04:48:51;8.07;;;7.27;;
5499;SDS011;2772;42.700;23.304;2023-04-25T04:51:18;7.50;;;6.80;;
5499;SDS011;2772;42.700;23.304;2023-04-25T04:53:45;8.20;;;7.30;;
5499;SDS011;2772;42.700;23.304;2023-04-25T04:56:12;11.77;;;8.17;;
5499;SDS011;2772;42.700;23.304;2023-04-25T04:58:39;8.17;;;7.37;;
5499;SDS011;2772;42.700;23.304;2023-04-25T05:01:05;9.30;;;8.00;;
5499;SDS011;2772;42.700;23.304;2023-04-25T05:03:32;9.23;;;8.23;;
5499;SDS011;2772;42.700;23.304;2023-04-25T05:06:00;11.20;;;8.43;;
5499;SDS011;2772;42.700;23.304;2023-04-25T05:08:27;10.87;;;8.50;;
5499;SDS011;2772;42.700;23.304;2023-04-25T05:10:54;13.33;;;10.20;;
5499;SDS011;2772;42.700;23.304;2023-04-25T05:13:20;19.53;;;12.70;;
5499;SDS011;2772;42.700;23.304;2023-04-25T05:15:47;15.17;;;12.43;;
5499;SDS011;2772;42.700;23.304;2023-04-25T05:18:14;18.07;;;12.57;;
5499;SDS011;2772;42.700;23.304;2023-04-25T05:20:40;11.73;;;10.33;;
5499;SDS011;2772;42.700;23.304;2023-04-25T05:23:08;13.20;;;10.50;;
5499;SDS011;2772;42.700;23.304;2023-04-25T05:25:35;12.93;;;10.10;;
5499;SDS011;2772;42.700;23.304;2023-04-25T05:28:02;14.93;;;9.23;;
5499;SDS011;2772;42.700;23.304;2023-04-25T05:30:30;14.03;;;9.10;;
5499;SDS011;2772;42.700;23.304;2023-04-25T05:32:57;9.93;;;8.93;;
5499;SDS011;2772;42.700;23.304;2023-04-25T05:35:24;15.30;;;9.30;;
5499;SDS011;2772;42.700;23.304;2023-04-25T05:37:51;9.93;;;7.77;;
5499;SDS011;2772;42.700;23.304;2023-04-25T05:40:20;9.30;;;7.93;;
5499;SDS011;2772;42.700;23.304;2023-04-25T05:42:47;12.03;;;9.20;;
5499;SDS011;2772;42.700;23.304;2023-04-25T05:45:14;10.50;;;8.27;;
5499;SDS011;2772;42.700;23.304;2023-04-25T05:47:42;11.47;;;8.67;;
5499;SDS011;2772;42.700;23.304;2023-04-25T05:50:10;10.93;;;8.27;;
5499;SDS011;2772;42.700;23.304;2023-04-25T05:52:38;12.40;;;9.27;;
5499;SDS011;2772;42.700;23.304;2023-04-25T05:55:05;12.53;;;8.20;;
5499;SDS011;2772;42.700;23.304;2023-04-25T05:57:34;14.90;;;8.63;;
5499;SDS011;2772;42.700;23.304;2023-04-25T06:00:01;14.90;;;9.80;;
5499;SDS011;2772;42.700;23.304;2023-04-25T06:02:28;13.57;;;10.33;;
5499;SDS011;2772;42.700;23.304;2023-04-25T06:04:55;14.70;;;9.90;;
5499;SDS011;2772;42.700;23.304;2023-04-25T06:07:22;12.67;;;10.73;;
5499;SDS011;2772;42.700;23.304;2023-04-25T06:09:49;13.17;;;10.23;;
5499;SDS011;2772;42.700;23.304;2023-04-25T06:12:16;12.87;;;9.70;;
5499;SDS011;2772;42.700;23.304;2023-04-25T06:14:44;11.13;;;9.57;;
5499;SDS011;2772;42.700;23.304;2023-04-25T06:17:10;12.87;;;8.90;;
5499;SDS011;2772;42.700;23.304;2023-04-25T06:19:37;16.03;;;11.37;;
5499;SDS011;2772;42.700;23.304;2023-04-25T06:22:04;16.50;;;11.80;;
5499;SDS011;2772;42.700;23.304;2023-04-25T06:24:32;20.10;;;14.47;;
5499;SDS011;2772;42.700;23.304;2023-04-25T06:26:59;20.63;;;14.20;;
5499;SDS011;2772;42.700;23.304;2023-04-25T06:29:26;19.77;;;13.07;;
5499;SDS011;2772;42.700;23.304;2023-04-25T06:31:54;17.23;;;11.70;;
5499;SDS011;2772;42.700;23.304;2023-04-25T06:34:22;15.37;;;10.80;;
5499;SDS011;2772;42.700;23.304;2023-04-25T06:36:49;15.60;;;8.90;;
5499;SDS011;2772;42.700;23.304;2023-04-25T06:39:15;13.63;;;8.80;;
5499;SDS011;2772;42.700;23.304;2023-04-25T06:41:42;10.38;;;7.82;;
5499;SDS011;2772;42.700;23.304;2023-04-25T06:44:09;10.00;;;6.97;;
5499;SDS011;2772;42.700;23.304;2023-04-25T06:46:35;9.67;;;7.57;;
5499;SDS011;2772;42.700;23.304;2023-04-25T06:49:04;6.53;;;5.77;;
5499;SDS011;2772;42.700;23.304;2023-04-25T06:51:30;10.10;;;6.53;;
5499;SDS011;2772;42.700;23.304;2023-04-25T06:53:57;8.13;;;6.77;;
5499;SDS011;2772;42.700;23.304;2023-04-25T06:56:24;10.57;;;7.83;;
5499;SDS011;2772;42.700;23.304;2023-04-25T06:58:51;15.27;;;7.30;;
5499;SDS011;2772;42.700;23.304;2023-04-25T07:01:17;8.97;;;6.60;;
5499;SDS011;2772;42.700;23.304;2023-04-25T07:03:44;11.83;;;7.90;;
5499;SDS011;2772;42.700;23.304;2023-04-25T07:06:12;16.17;;;8.23;;
5499;SDS011;2772;42.700;23.304;2023-04-25T07:08:39;16.50;;;8.23;;
5499;SDS011;2772;42.700;23.304;2023-04-25T07:11:05;9.47;;;7.83;;
5499;SDS011;2772;42.700;23.304;2023-04-25T07:13:32;11.77;;;9.00;;
5499;SDS011;2772;42.700;23.304;2023-04-25T07:15:58;11.63;;;8.50;;
5499;SDS011;2772;42.700;23.304;2023-04-25T07:18:26;12.03;;;8.27;;
5499;SDS011;2772;42.700;23.304;2023-04-25T07:20:52;12.40;;;8.67;;
5499;SDS011;2772;42.700;23.304;2023-04-25T07:23:20;14.33;;;9.93;;
5499;SDS011;2772;42.700;23.304;2023-04-25T07:25:47;14.50;;;9.47;;
5499;SDS011;2772;42.700;23.304;2023-04-25T07:28:14;25.30;;;9.63;;
5499;SDS011;2772;42.700;23.304;2023-04-25T07:30:41;19.08;;;10.35;;
5499;SDS011;2772;42.700;23.304;2023-04-25T07:33:07;17.43;;;10.07;;
5499;SDS011;2772;42.700;23.304;2023-04-25T07:35:34;11.90;;;8.50;;
5499;SDS011;2772;42.700;23.304;2023-04-25T07:38:01;18.00;;;9.70;;
5499;SDS011;2772;42.700;23.304;2023-04-25T07:40:30;21.00;;;9.40;;
5499;SDS011;2772;42.700;23.304;2023-04-25T07:42:56;25.87;;;10.07;;
5499;SDS011;2772;42.700;23.304;2023-04-25T07:45:23;24.13;;;9.57;;
5499;SDS011;2772;42.700;23.304;2023-04-25T07:47:50;17.20;;;9.33;;
5499;SDS011;2772;42.700;23.304;2023-04-25T07:50:16;14.57;;;8.90;;
5499;SDS011;2772;42.700;23.304;2023-04-25T07:52:43;17.50;;;9.63;;
5499;SDS011;2772;42.700;23.304;2023-04-25T07:55:10;18.00;;;10.00;;
5499;SDS011;2772;42.700;23.304;2023-04-25T07:57:38;26.33;;;13.97;;
5499;SDS011;2772;42.700;23.304;2023-04-25T08:00:05;15.63;;;9.30;;
5499;SDS011;2772;42.700;23.304;2023-04-25T08:02:34;17.53;;;10.00;;
5499;SDS011;2772;42.700;23.304;2023-04-25T08:05:01;15.13;;;8.67;;
5499;SDS011;2772;42.700;23.304;2023-04-25T08:07:28;23.43;;;10.23;;
5499;SDS011;2772;42.700;23.304;2023-04-25T08:09:55;18.87;;;10.57;;
5499;SDS011;2772;42.700;23.304;2023-04-25T08:12:21;18.27;;;9.80;;
5499;SDS011;2772;42.700;23.304;2023-04-25T08:14:49;17.97;;;9.27;;
5499;SDS011;2772;42.700;23.304;2023-04-25T08:17:16;15.30;;;9.07;;
5499;SDS011;2772;42.700;23.304;2023-04-25T08:19:43;14.10;;;8.80;;
5499;SDS011;2772;42.700;23.304;2023-04-25T08:22:09;18.07;;;9.57;;
5499;SDS011;2772;42.700;23.304;2023-04-25T08:24:37;16.17;;;11.00;;
5499;SDS011;2772;42.700;23.304;2023-04-25T08:27:04;16.97;;;9.40;;
5499;SDS011;2772;42.700;23.304;2023-04-25T08:29:31;18.27;;;10.40;;
5499;SDS011;2772;42.700;23.304;2023-04-25T08:31:59;13.10;;;9.50;;
5499;SDS011;2772;42.700;23.304;2023-04-25T08:34:26;13.17;;;9.27;;
5499;SDS011;2772;42.700;23.304;2023-04-25T08:36:53;10.07;;;7.40;;
5499;SDS011;2772;42.700;23.304;2023-04-25T08:39:20;14.27;;;7.53;;
5499;SDS011;2772;42.700;23.304;2023-04-25T08:41:47;13.37;;;8.13;;
5499;SDS011;2772;42.700;23.304;2023-04-25T08:44:13;12.87;;;9.63;;
5499;SDS011;2772;42.700;23.304;2023-04-25T08:46:41;9.50;;;8.40;;
5499;SDS011;2772;42.700;23.304;2023-04-25T08:49:10;14.67;;;9.30;;
5499;SDS011;2772;42.700;23.304;2023-04-25T08:51:40;24.30;;;16.13;;
5499;SDS011;2772;42.700;23.304;2023-04-25T08:54:12;30.80;;;11.30;;
5499;SDS011;2772;42.700;23.304;2023-04-25T08:56:40;26.43;;;9.50;;
5499;SDS011;2772;42.700;23.304;2023-04-25T08:59:09;8.10;;;5.53;;
5499;SDS011;2772;42.700;23.304;2023-04-25T09:01:37;7.53;;;4.80;;
5499;SDS011;2772;42.700;23.304;2023-04-25T09:04:04;6.03;;;5.30;;
5499;SDS011;2772;42.700;23.304;2023-04-25T09:06:32;13.27;;;9.90;;
5499;SDS011;2772;42.700;23.304;2023-04-25T09:09:01;6.57;;;4.80;;
5499;SDS011;2772;42.700;23.304;2023-04-25T09:11:30;10.13;;;5.57;;
5499;SDS011;2772;42.700;23.304;2023-04-25T09:14:10;6.50;;;5.27;;
5499;SDS011;2772;42.700;23.304;2023-04-25T09:16:56;15.23;;;6.37;;
5499;SDS011;2772;42.700;23.304;2023-04-25T09:19:26;14.50;;;7.30;;
5499;SDS011;2772;42.700;23.304;2023-04-25T09:21:56;8.50;;;6.50;;
5499;SDS011;2772;42.700;23.304;2023-04-25T09:24:30;12.43;;;6.80;;
5499;SDS011;2772;42.700;23.304;2023-04-25T09:26:58;10.90;;;7.93;;
5499;SDS011;2772;42.700;23.304;2023-04-25T09:29:29;7.83;;;6.87;;
5499;SDS011;2772;42.700;23.304;2023-04-25T09:34:46;20.43;;;10.40;;
5499;SDS011;2772;42.700;23.304;2023-04-25T09:37:18;13.30;;;8.80;;
5499;SDS011;2772;42.700;23.304;2023-04-25T09:39:46;10.63;;;7.80;;
5499;SDS011;2772;42.700;23.304;2023-04-25T09:42:13;13.15;;;8.20;;
5499;SDS011;2772;42.700;23.304;2023-04-25T09:44:45;10.70;;;6.77;;
5499;SDS011;2772;42.700;23.304;2023-04-25T09:47:12;10.43;;;6.30;;
5499;SDS011;2772;42.700;23.304;2023-04-25T09:49:40;9.67;;;6.57;;
5499;SDS011;2772;42.700;23.304;2023-04-25T09:52:08;3.63;;;3.33;;
5499;SDS011;2772;42.700;23.304;2023-04-25T09:54:40;3.97;;;3.67;;
5499;SDS011;2772;42.700;23.304;2023-04-25T09:57:09;4.60;;;4.20;;
5499;SDS011;2772;42.700;23.304;2023-04-25T09:59:38;3.30;;;3.00;;
5499;SDS011;2772;42.700;23.304;2023-04-25T10:02:07;5.17;;;3.10;;
5499;SDS011;2772;42.700;23.304;2023-04-25T10:04:35;6.80;;;3.10;;
5499;SDS011;2772;42.700;23.304;2023-04-25T10:07:02;4.40;;;4.00;;
5499;SDS011;2772;42.700;23.304;2023-04-25T10:09:32;3.90;;;3.60;;
5499;SDS011;2772;42.700;23.304;2023-04-25T10:12:01;10.43;;;4.00;;
5499;SDS011;2772;42.700;23.304;2023-04-25T10:14:29;8.03;;;3.70;;
5499;SDS011;2772;42.700;23.304;2023-04-25T10:16:57;3.83;;;3.37;;
5499;SDS011;2772;42.700;23.304;2023-04-25T10:19:24;6.97;;;3.80;;
5499;SDS011;2772;42.700;23.304;2023-04-25T10:21:52;6.80;;;3.40;;
5499;SDS011;2772;42.700;23.304;2023-04-25T10:24:24;2.90;;;2.20;;
5499;SDS011;2772;42.700;23.304;2023-04-25T10:26:52;19.13;;;4.30;;
5499;SDS011;2772;42.700;23.304;2023-04-25T10:29:23;15.17;;;1.80;;
5499;SDS011;2772;42.700;23.304;2023-04-25T10:31:51;2.57;;;1.77;;
5499;SDS011;2772;42.700;23.304;2023-04-25T10:34:18;3.83;;;2.13;;
5499;SDS011;2772;42.700;23.304;2023-04-25T10:36:48;2.23;;;1.60;;
5499;SDS011;2772;42.700;23.304;2023-04-25T10:39:21;7.43;;;2.03;;
5499;SDS011;2772;42.700;23.304;2023-04-25T10:41:52;1.83;;;1.73;;
5499;SDS011;2772;42.700;23.304;2023-04-25T10:44:21;2.10;;;1.87;;
5499;SDS011;2772;42.700;23.304;2023-04-25T10:46:49;1.37;;;1.27;;
5499;SDS011;2772;42.700;23.304;2023-04-25T10:49:28;5.93;;;2.50;;
5499;SDS011;2772;42.700;23.304;2023-04-25T10:54:42;9.37;;;4.13;;
5499;SDS011;2772;42.700;23.304;2023-04-25T10:59:59;7.80;;;3.23;;
5499;SDS011;2772;42.700;23.304;2023-04-25T11:02:31;6.37;;;4.63;;
5499;SDS011;2772;42.700;23.304;2023-04-25T11:04:58;1.67;;;1.40;;
5499;SDS011;2772;42.700;23.304;2023-04-25T11:07:29;6.10;;;1.77;;
5499;SDS011;2772;42.700;23.304;2023-04-25T11:10:02;1.73;;;1.23;;
5499;SDS011;2772;42.700;23.304;2023-04-25T11:12:30;1.83;;;1.13;;
5499;SDS011;2772;42.700;23.304;2023-04-25T11:15:01;1.30;;;1.03;;
5499;SDS011;2772;42.700;23.304;2023-04-25T11:17:28;1.00;;;0.70;;
5499;SDS011;2772;42.700;23.304;2023-04-25T11:19:57;1.30;;;1.20;;
5499;SDS011;2772;42.700;23.304;2023-04-25T11:22:23;2.20;;;1.30;;
5499;SDS011;2772;42.700;23.304;2023-04-25T11:24:51;6.70;;;1.90;;
5499;SDS011;2772;42.700;23.304;2023-04-25T11:27:17;3.80;;;1.23;;
5499;SDS011;2772;42.700;23.304;2023-04-25T11:29:44;1.90;;;1.80;;
5499;SDS011;2772;42.700;23.304;2023-04-25T11:32:13;3.37;;;1.67;;
5499;SDS011;2772;42.700;23.304;2023-04-25T11:34:42;4.47;;;3.30;;
5499;SDS011;2772;42.700;23.304;2023-04-25T11:37:11;3.17;;;1.87;;
5499;SDS011;2772;42.700;23.304;2023-04-25T11:39:42;6.30;;;2.80;;
5499;SDS011;2772;42.700;23.304;2023-04-25T11:42:11;2.20;;;1.50;;
5499;SDS011;2772;42.700;23.304;2023-04-25T11:44:38;1.63;;;1.53;;
5499;SDS011;2772;42.700;23.304;2023-04-25T11:47:05;1.92;;;1.83;;
5499;SDS011;2772;42.700;23.304;2023-04-25T11:49:32;3.27;;;2.67;;
5499;SDS011;2772;42.700;23.304;2023-04-25T11:52:00;2.27;;;2.07;;
5499;SDS011;2772;42.700;23.304;2023-04-25T11:54:28;2.43;;;1.30;;
5499;SDS011;2772;42.700;23.304;2023-04-25T11:56:55;1.90;;;1.70;;
5499;SDS011;2772;42.700;23.304;2023-04-25T11:59:23;2.10;;;1.77;;
5499;SDS011;2772;42.700;23.304;2023-04-25T12:01:50;2.70;;;2.10;;
5499;SDS011;2772;42.700;23.304;2023-04-25T12:04:18;3.17;;;2.87;;
5499;SDS011;2772;42.700;23.304;2023-04-25T12:06:46;2.30;;;2.20;;
5499;SDS011;2772;42.700;23.304;2023-04-25T12:09:15;3.33;;;2.23;;
5499;SDS011;2772;42.700;23.304;2023-04-25T12:11:45;3.97;;;3.47;;
5499;SDS011;2772;42.700;23.304;2023-04-25T12:14:20;3.10;;;2.90;;
5499;SDS011;2772;42.700;23.304;2023-04-25T12:16:49;1.70;;;1.20;;
5499;SDS011;2772;42.700;23.304;2023-04-25T12:19:16;6.30;;;1.40;;
5499;SDS011;2772;42.700;23.304;2023-04-25T12:21:44;9.93;;;2.77;;
5499;SDS011;2772;42.700;23.304;2023-04-25T12:24:12;6.40;;;3.20;;
5499;SDS011;2772;42.700;23.304;2023-04-25T12:26:47;19.70;;;3.23;;
5499;SDS011;2772;42.700;23.304;2023-04-25T12:29:16;3.60;;;2.33;;
5499;SDS011;2772;42.700;23.304;2023-04-25T12:31:43;6.17;;;1.50;;
5499;SDS011;2772;42.700;23.304;2023-04-25T12:34:10;4.67;;;2.10;;
5499;SDS011;2772;42.700;23.304;2023-04-25T12:36:37;5.30;;;2.60;;
5499;SDS011;2772;42.700;23.304;2023-04-25T12:39:03;4.80;;;2.77;;
5499;SDS011;2772;42.700;23.304;2023-04-25T12:41:30;8.20;;;3.20;;
5499;SDS011;2772;42.700;23.304;2023-04-25T12:43:58;4.77;;;2.47;;
5499;SDS011;2772;42.700;23.304;2023-04-25T12:46:25;5.90;;;3.37;;
5499;SDS011;2772;42.700;23.304;2023-04-25T12:48:52;8.13;;;2.97;;
5499;SDS011;2772;42.700;23.304;2023-04-25T12:51:20;4.10;;;3.70;;
5499;SDS011;2772;42.700;23.304;2023-04-25T12:53:49;5.40;;;3.93;;
5499;SDS011;2772;42.700;23.304;2023-04-25T12:56:16;13.10;;;6.10;;
5499;SDS011;2772;42.700;23.304;2023-04-25T12:58:43;6.63;;;4.73;;
5499;SDS011;2772;42.700;23.304;2023-04-25T13:01:11;8.10;;;5.20;;
5499;SDS011;2772;42.700;23.304;2023-04-25T13:03:39;3.50;;;3.20;;
5499;SDS011;2772;42.700;23.304;2023-04-25T13:06:06;4.93;;;2.80;;
5499;SDS011;2772;42.700;23.304;2023-04-25T13:08:32;4.40;;;4.10;;
5499;SDS011;2772;42.700;23.304;2023-04-25T13:11:00;3.10;;;2.90;;
5499;SDS011;2772;42.700;23.304;2023-04-25T13:13:26;4.10;;;3.70;;
5499;SDS011;2772;42.700;23.304;2023-04-25T13:15:53;4.40;;;3.90;;
5499;SDS011;2772;42.700;23.304;2023-04-25T13:18:22;8.80;;;6.33;;
5499;SDS011;2772;42.700;23.304;2023-04-25T13:20:51;7.67;;;3.83;;
5499;SDS011;2772;42.700;23.304;2023-04-25T13:23:18;4.77;;;4.10;;
5499;SDS011;2772;42.700;23.304;2023-04-25T13:25:45;3.83;;;3.53;;
5499;SDS011;2772;42.700;23.304;2023-04-25T13:28:12;12.03;;;7.60;;
5499;SDS011;2772;42.700;23.304;2023-04-25T13:30:39;4.77;;;4.33;;
5499;SDS011;2772;42.700;23.304;2023-04-25T13:33:06;3.87;;;3.63;;
5499;SDS011;2772;42.700;23.304;2023-04-25T13:35:35;3.40;;;2.97;;
5499;SDS011;2772;42.700;23.304;2023-04-25T13:38:02;3.30;;;2.97;;
5499;SDS011;2772;42.700;23.304;2023-04-25T13:40:29;3.10;;;2.90;;
5499;SDS011;2772;42.700;23.304;2023-04-25T13:42:57;6.40;;;4.10;;
5499;SDS011;2772;42.700;23.304;2023-04-25T13:45:24;6.33;;;3.80;;
5499;SDS011;2772;42.700;23.304;2023-04-25T13:47:51;6.70;;;4.60;;
5499;SDS011;2772;42.700;23.304;2023-04-25T13:50:17;6.00;;;4.17;;
5499;SDS011;2772;42.700;23.304;2023-04-25T13:52:46;6.93;;;4.10;;
5499;SDS011;2772;42.700;23.304;2023-04-25T13:55:13;4.33;;;3.70;;
5499;SDS011;2772;42.700;23.304;2023-04-25T13:57:40;6.63;;;3.80;;
5499;SDS011;2772;42.700;23.304;2023-04-25T14:00:07;8.57;;;4.27;;
5499;SDS011;2772;42.700;23.304;2023-04-25T14:02:35;4.37;;;3.97;;
5499;SDS011;2772;42.700;23.304;2023-04-25T14:05:01;7.93;;;5.10;;
5499;SDS011;2772;42.700;23.304;2023-04-25T14:07:29;3.60;;;3.30;;
5499;SDS011;2772;42.700;23.304;2023-04-25T14:09:57;6.87;;;4.20;;
5499;SDS011;2772;42.700;23.304;2023-04-25T14:12:24;5.10;;;3.33;;
5499;SDS011;2772;42.700;23.304;2023-04-25T14:14:51;5.43;;;3.50;;
5499;SDS011;2772;42.700;23.304;2023-04-25T14:17:18;3.47;;;3.27;;
5499;SDS011;2772;42.700;23.304;2023-04-25T14:19:45;4.30;;;3.07;;
5499;SDS011;2772;42.700;23.304;2023-04-25T14:22:13;2.93;;;2.67;;
5499;SDS011;2772;42.700;23.304;2023-04-25T14:24:40;2.73;;;2.53;;
5499;SDS011;2772;42.700;23.304;2023-04-25T14:27:08;3.53;;;2.90;;
5499;SDS011;2772;42.700;23.304;2023-04-25T14:29:35;1.80;;;1.63;;
5499;SDS011;2772;42.700;23.304;2023-04-25T14:32:02;2.13;;;1.87;;
5499;SDS011;2772;42.700;23.304;2023-04-25T14:34:30;2.20;;;1.53;;
5499;SDS011;2772;42.700;23.304;2023-04-25T14:36:56;1.80;;;1.70;;
5499;SDS011;2772;42.700;23.304;2023-04-25T14:39:23;3.47;;;3.20;;
5499;SDS011;2772;42.700;23.304;2023-04-25T14:41:50;2.50;;;2.40;;
5499;SDS011;2772;42.700;23.304;2023-04-25T14:44:18;3.20;;;2.47;;
5499;SDS011;2772;42.700;23.304;2023-04-25T14:46:45;3.60;;;2.40;;
5499;SDS011;2772;42.700;23.304;2023-04-25T14:49:11;2.83;;;2.63;;
5499;SDS011;2772;42.700;23.304;2023-04-25T14:51:39;3.03;;;2.73;;
5499;SDS011;2772;42.700;23.304;2023-04-25T14:54:06;3.93;;;3.00;;
5499;SDS011;2772;42.700;23.304;2023-04-25T14:56:33;10.13;;;3.80;;
5499;SDS011;2772;42.700;23.304;2023-04-25T14:58:59;3.77;;;3.47;;
5499;SDS011;2772;42.700;23.304;2023-04-25T15:01:28;3.57;;;3.37;;
5499;SDS011;2772;42.700;23.304;2023-04-25T15:03:54;4.20;;;3.57;;
5499;SDS011;2772;42.700;23.304;2023-04-25T15:06:22;3.43;;;3.13;;